createdAt,value
2022-09-12T00:04:04.047Z,1.10
2022-09-12T00:09:14.245Z,1.20
2022-09-12T00:14:21.439Z,1.00
2022-09-12T00:19:30.119Z,1.17
2022-09-12T00:24:37.001Z,1.10
2022-09-12T00:29:43.940Z,1.10
2022-09-12T00:34:50.843Z,0.90
2022-09-12T00:39:58.402Z,0.90
2022-09-12T00:45:05.729Z,1.00
2022-09-12T00:50:15.611Z,0.90
2022-09-12T00:55:25.594Z,1.00
2022-09-12T01:00:32.567Z,0.90
2022-09-12T01:05:43.767Z,0.90
2022-09-12T01:10:51.086Z,0.90
2022-09-12T01:15:58.184Z,0.80
2022-09-12T01:21:05.425Z,0.80
2022-09-12T01:26:13.647Z,1.00
2022-09-12T01:31:23.669Z,1.20
2022-09-12T01:36:31.213Z,0.90
2022-09-12T01:41:41.277Z,0.60
2022-09-12T01:46:51.131Z,0.80
2022-09-12T01:52:01.000Z,0.73
2022-09-12T01:57:10.982Z,0.60
2022-09-12T02:02:20.896Z,0.80
2022-09-12T02:07:32.140Z,0.90
2022-09-12T02:12:41.920Z,0.80
2022-09-12T02:17:51.349Z,0.70
2022-09-12T02:23:00.918Z,0.80
2022-09-12T02:28:10.721Z,0.80
2022-09-12T02:33:20.573Z,0.80
2022-09-12T02:38:30.526Z,0.80
2022-09-12T02:43:38.646Z,0.60
2022-09-12T02:48:45.678Z,0.80
2022-09-12T02:53:53.109Z,0.70
2022-09-12T02:59:02.935Z,0.70
2022-09-12T03:04:12.737Z,0.73
2022-09-12T03:09:20.730Z,0.77
2022-09-12T03:14:30.704Z,0.70
2022-09-12T03:19:38.770Z,0.70
2022-09-12T03:24:48.632Z,0.80
2022-09-12T03:29:57.242Z,0.80
2022-09-12T03:35:05.371Z,0.60
2022-09-12T03:40:13.526Z,0.70
2022-09-12T03:45:20.545Z,0.70
2022-09-12T03:50:27.520Z,0.63
2022-09-12T03:55:34.369Z,0.70
2022-09-12T04:00:42.938Z,0.70
2022-09-12T04:05:49.855Z,0.67
2022-09-12T04:10:58.272Z,0.70
2022-09-12T04:16:06.984Z,0.70
2022-09-12T04:21:17.072Z,0.70
2022-09-12T04:26:24.522Z,0.70
2022-09-12T04:31:31.429Z,0.70
2022-09-12T04:36:38.617Z,0.60
2022-09-12T04:41:45.464Z,0.70
2022-09-12T04:46:52.953Z,0.60
2022-09-12T04:52:00.186Z,0.70
2022-09-12T04:57:07.063Z,0.70
2022-09-12T05:02:14.259Z,0.80
2022-09-12T05:07:21.149Z,0.70
2022-09-12T05:12:29.253Z,0.70
2022-09-12T05:17:36.281Z,0.70
2022-09-12T05:22:43.217Z,0.67
2022-09-12T05:27:53.598Z,0.60
2022-09-12T05:33:00.727Z,0.70
2022-09-12T05:38:10.085Z,0.70
2022-09-12T05:43:17.336Z,0.60
2022-09-12T05:48:25.482Z,0.70
2022-09-12T05:53:33.234Z,0.60
2022-09-12T05:58:43.115Z,0.60
2022-09-12T06:03:53.007Z,0.70
2022-09-12T06:09:02.296Z,0.60
2022-09-12T06:14:16.194Z,0.50
2022-09-12T06:19:28.918Z,0.50
2022-09-12T06:24:41.266Z,0.50
2022-09-12T06:29:53.684Z,0.60
2022-09-12T06:35:05.492Z,0.60
2022-09-12T06:40:18.016Z,0.50
2022-09-12T06:45:31.393Z,1.37
2022-09-12T06:50:43.810Z,0.40
2022-09-12T06:55:57.544Z,0.40
2022-09-12T07:01:11.079Z,0.40
2022-09-12T07:06:24.671Z,0.50
2022-09-12T07:11:38.297Z,0.50
2022-09-12T07:16:50.816Z,0.50
2022-09-12T07:22:03.452Z,0.50
2022-09-12T07:27:15.605Z,0.40
2022-09-12T07:32:28.608Z,0.50
2022-09-12T07:37:41.584Z,0.50
2022-09-12T07:42:53.418Z,0.40
2022-09-12T07:48:05.626Z,0.50
2022-09-12T07:53:17.995Z,0.50
2022-09-12T07:58:30.481Z,0.40
2022-09-12T08:03:43.367Z,0.47
2022-09-12T08:08:56.570Z,0.80
2022-09-12T08:14:08.684Z,0.50
2022-09-12T08:19:21.445Z,0.60
2022-09-12T08:24:34.162Z,0.60
2022-09-12T08:29:47.180Z,0.40
2022-09-12T08:34:56.616Z,0.60
2022-09-12T08:40:09.797Z,0.50
2022-09-12T08:45:24.625Z,0.40
2022-09-12T08:50:38.585Z,0.50
2022-09-12T08:55:59.408Z,0.50
2022-09-12T09:01:11.910Z,0.50
2022-09-12T09:06:31.504Z,0.57
2022-09-12T09:11:50.318Z,0.53
2022-09-12T09:17:06.327Z,0.50
2022-09-12T09:28:04.365Z,0.50
2022-09-12T09:33:17.811Z,0.60
2022-09-12T09:38:30.106Z,0.50
2022-09-12T09:43:43.455Z,0.60
2022-09-12T09:48:54.578Z,0.60
2022-09-12T09:54:09.883Z,0.60
2022-09-12T09:59:27.864Z,0.50
2022-09-12T10:04:49.282Z,0.50
2022-09-12T10:10:02.237Z,0.50
2022-09-12T10:15:15.689Z,0.50
2022-09-12T10:20:34.851Z,0.70
2022-09-12T10:25:50.226Z,0.60
2022-09-12T10:31:07.908Z,0.40
2022-09-12T10:36:21.168Z,0.50
2022-09-12T10:41:36.554Z,0.57
2022-09-12T10:46:57.390Z,0.60
2022-09-12T10:52:12.420Z,0.50
2022-09-12T10:57:31.505Z,0.50
2022-09-12T11:02:50.228Z,0.40
2022-09-12T11:08:10.184Z,0.40
2022-09-12T11:13:23.176Z,0.50
2022-09-12T11:18:35.836Z,0.50
2022-09-12T11:23:48.862Z,0.67
2022-09-12T11:29:01.971Z,0.50
2022-09-12T11:34:15.155Z,0.50
2022-09-12T11:39:35.769Z,0.60
2022-09-12T11:44:50.958Z,0.50
2022-09-12T11:50:11.931Z,0.47
2022-09-12T11:55:36.400Z,0.50
2022-09-12T12:00:52.092Z,0.60
2022-09-12T12:06:05.812Z,0.40
2022-09-12T12:11:15.789Z,0.50
2022-09-12T12:16:24.029Z,0.50
2022-09-12T12:21:31.434Z,0.57
2022-09-12T12:26:41.271Z,0.60
2022-09-12T12:31:51.115Z,0.50
2022-09-12T12:37:02.190Z,0.60
2022-09-12T12:42:08.405Z,0.50
2022-09-12T12:47:18.752Z,0.50
2022-09-12T12:52:29.050Z,0.50
2022-09-12T12:57:37.314Z,0.50
2022-09-12T13:02:47.692Z,0.50
2022-09-12T13:07:57.879Z,0.70
2022-09-12T13:13:09.135Z,0.60
2022-09-12T13:18:18.995Z,0.50
2022-09-12T13:23:28.879Z,0.50
2022-09-12T13:28:36.168Z,0.70
2022-09-12T13:33:46.332Z,0.50
2022-09-12T13:38:56.591Z,0.50
2022-09-12T13:44:05.411Z,0.42
2022-09-12T13:49:15.577Z,0.47
2022-09-12T13:54:24.653Z,0.50
2022-09-12T13:59:34.519Z,0.60
2022-09-12T14:04:43.474Z,0.50
2022-09-12T14:09:53.836Z,0.70
2022-09-12T14:15:01.143Z,0.60
2022-09-12T14:20:11.193Z,0.50
2022-09-12T14:25:21.370Z,0.53
2022-09-12T14:30:32.430Z,0.60
2022-09-12T14:35:43.442Z,0.60
2022-09-12T14:40:52.657Z,0.70
2022-09-12T14:46:03.337Z,0.60
2022-09-12T14:51:13.982Z,0.80
2022-09-12T14:56:23.703Z,0.50
2022-09-12T15:01:30.959Z,0.70
2022-09-12T15:06:40.009Z,0.70
2022-09-12T15:11:47.067Z,0.60
2022-09-12T15:16:54.001Z,0.60
2022-09-12T15:22:00.873Z,0.60
2022-09-12T15:27:10.690Z,0.80
2022-09-12T15:32:20.693Z,0.60
2022-09-12T15:37:27.931Z,0.60
2022-09-12T15:42:35.084Z,0.70
2022-09-12T15:47:42.129Z,0.70
2022-09-12T15:52:49.097Z,0.80
2022-09-12T15:57:56.319Z,0.80
2022-09-12T16:03:03.665Z,0.70
2022-09-12T16:08:10.934Z,0.70
2022-09-12T16:13:17.993Z,0.70
2022-09-12T16:18:25.397Z,0.70
2022-09-12T16:23:33.202Z,0.60
2022-09-12T16:28:40.218Z,0.60
2022-09-12T16:33:47.561Z,0.60
2022-09-12T16:38:56.265Z,0.70
2022-09-12T16:44:03.879Z,0.70
2022-09-12T16:49:12.273Z,0.70
2022-09-12T16:54:19.095Z,0.67
2022-09-12T16:59:26.286Z,0.70
2022-09-12T17:04:33.377Z,0.70
2022-09-12T17:09:40.365Z,0.70
2022-09-12T17:14:47.470Z,0.63
2022-09-12T17:19:54.525Z,0.70
2022-09-12T17:25:01.426Z,0.70
2022-09-12T17:30:09.409Z,0.80
2022-09-12T17:35:16.622Z,0.70
2022-09-12T17:40:37.051Z,0.77
2022-09-12T17:45:32.278Z,0.80
2022-09-12T17:50:41.335Z,0.87
2022-09-12T17:55:51.506Z,0.70
2022-09-12T18:01:01.254Z,0.80
2022-09-12T18:06:08.880Z,0.70
2022-09-12T18:11:15.895Z,0.80
2022-09-12T18:16:22.801Z,0.80
2022-09-12T18:21:30.649Z,0.70
2022-09-12T18:26:38.999Z,0.70
2022-09-12T18:31:47.257Z,0.70
2022-09-12T18:36:55.416Z,0.70
2022-09-12T18:42:02.529Z,0.90
2022-09-12T18:47:09.648Z,0.87
2022-09-12T18:52:19.012Z,0.70
2022-09-12T18:57:26.669Z,0.83
2022-09-12T19:02:34.851Z,0.97
2022-09-12T19:07:41.728Z,0.90
2022-09-12T19:12:49.045Z,0.90
2022-09-12T19:17:56.121Z,0.80
2022-09-12T19:23:03.398Z,0.90
2022-09-12T19:28:10.531Z,0.90
2022-09-12T19:33:17.959Z,0.90
2022-09-12T19:38:24.799Z,0.80
2022-09-12T19:43:33.031Z,1.00
2022-09-12T19:48:40.964Z,0.83
2022-09-12T19:53:50.635Z,1.00
2022-09-12T19:58:57.692Z,0.83
2022-09-12T20:04:07.340Z,0.90
2022-09-12T20:09:14.365Z,0.80
2022-09-12T20:14:22.498Z,0.80
2022-09-12T20:19:29.945Z,0.90
2022-09-12T20:24:37.830Z,0.70
2022-09-12T20:29:45.244Z,0.90
2022-09-12T20:34:52.560Z,0.80
2022-09-12T20:40:00.490Z,0.80
2022-09-12T20:45:08.121Z,0.70
2022-09-12T20:50:15.321Z,0.73
2022-09-12T20:55:22.200Z,1.00
2022-09-12T21:00:30.778Z,0.80
2022-09-12T21:05:38.358Z,1.00
2022-09-12T21:10:46.503Z,0.80
2022-09-12T21:15:56.796Z,0.80
2022-09-12T21:21:05.006Z,0.90
2022-09-12T21:26:12.429Z,0.90
2022-09-12T21:31:19.606Z,0.80
2022-09-12T21:36:26.693Z,0.77
2022-09-12T21:41:33.856Z,0.80
2022-09-12T21:46:41.216Z,0.83
2022-09-12T21:51:48.495Z,0.90
2022-09-12T21:56:55.536Z,0.80
2022-09-12T22:02:02.606Z,0.90
2022-09-12T22:07:11.228Z,0.73
2022-09-12T22:12:18.402Z,0.80
2022-09-12T22:17:25.758Z,0.80
2022-09-12T22:22:34.490Z,0.80
2022-09-12T22:27:41.432Z,0.90
2022-09-12T22:32:50.249Z,0.70
2022-09-12T22:37:57.177Z,0.60
2022-09-12T22:43:04.039Z,0.80
2022-09-12T22:48:11.077Z,0.70
2022-09-12T22:53:18.090Z,0.73
2022-09-12T22:58:25.090Z,0.70
2022-09-12T23:03:32.431Z,0.73
2022-09-12T23:08:40.687Z,0.70
2022-09-12T23:13:49.917Z,0.70
2022-09-12T23:18:56.828Z,0.70
2022-09-12T23:24:04.373Z,0.70
2022-09-12T23:29:11.645Z,0.70
2022-09-12T23:34:18.690Z,0.80
2022-09-12T23:39:25.766Z,0.80
2022-09-12T23:44:32.710Z,0.70
2022-09-12T23:49:39.565Z,0.70
2022-09-12T23:54:46.941Z,0.67
2022-09-12T23:59:53.998Z,0.80
